Time;durP1;ratioP1;P1;durP2;ratioP2;P2;SDS_P1;SDS_P2;PMS_P1;PMS_P2;Temp;Humidity;BMP_temperature;BMP_pressure;BME280_temperature;BME280_humidity;BME280_pressure;Samples;Min_cycle;Max_cycle;Signal;HPM_P1;HPM_P2
2022/08/31 00:09:41;;;;;;;18.10;14.75;;;;;;;;;;5056867;28;20472;-81
2022/08/31 00:12:48;;;;;;;16.77;13.40;;;;;;;;;;5041267;28;20049;-83
2022/08/31 00:15:39;;;;;;;22.38;13.77;;;;;;;;;;5055920;28;20045;-82
2022/08/31 00:18:35;;;;;;;20.77;13.60;;;;;;;;;;5028196;28;20044;-83
2022/08/31 00:21:32;;;;;;;16.90;13.70;;;;;;;;;;5055798;28;20048;-82
2022/08/31 00:24:34;;;;;;;19.23;13.35;;;;;;;;;;5053430;28;20380;-82
2022/08/31 00:27:45;;;;;;;17.90;13.95;;;;;;;;;;5042630;28;20484;-83
2022/08/31 00:30:35;;;;;;;21.70;15.18;;;;;;;;;;5075571;28;20380;-82
2022/08/31 00:33:21;;;;;;;22.02;14.15;;;;;;;;;;5055816;28;20461;-82
2022/08/31 00:36:09;;;;;;;23.98;13.77;;;;;;;;;;5047106;28;20040;-83
2022/08/31 00:39:00;;;;;;;23.38;13.23;;;;;;;;;;5055946;28;20049;-82
2022/08/31 00:41:48;;;;;;;18.05;13.48;;;;;;;;;;5047187;28;20040;-83
2022/08/31 00:44:37;;;;;;;20.42;13.02;;;;;;;;;;5047050;28;20041;-84
2022/08/31 00:47:23;;;;;;;17.48;13.77;;;;;;;;;;5065139;28;20067;-83
2022/08/31 00:50:13;;;;;;;18.40;14.50;;;;;;;;;;5057021;28;20040;-80
2022/08/31 00:53:00;;;;;;;15.98;14.25;;;;;;;;;;5070091;28;20041;-81
2022/08/31 00:55:51;;;;;;;14.95;13.20;;;;;;;;;;5054278;28;20048;-83
2022/08/31 00:58:43;;;;;;;17.35;14.18;;;;;;;;;;5074951;28;20049;-82
2022/08/31 01:01:31;;;;;;;23.10;15.10;;;;;;;;;;5055215;28;20384;-81
2022/08/31 01:04:16;;;;;;;19.33;14.18;;;;;;;;;;5060307;28;20463;-82
2022/08/31 01:07:06;;;;;;;18.50;14.68;;;;;;;;;;5061801;28;20037;-84
2022/08/31 01:09:51;;;;;;;23.00;13.82;;;;;;;;;;5046432;28;20037;-82
2022/08/31 01:12:37;;;;;;;21.45;14.70;;;;;;;;;;5055009;28;20041;-82
2022/08/31 01:15:43;;;;;;;17.25;13.63;;;;;;;;;;5054949;28;20045;-84
2022/08/31 01:18:33;;;;;;;19.73;13.40;;;;;;;;;;5046771;28;20041;-83
2022/08/31 01:22:03;;;;;;;19.63;13.45;;;;;;;;;;5061450;28;20040;-82
2022/08/31 01:29:00;;;;;;;16.17;11.93;;;;;;;;;;5054738;28;20387;-82
2022/08/31 01:37:04;;;;;;;14.20;12.32;;;;;;;;;;4995046;28;20038;-83
2022/08/31 01:40:28;;;;;;;17.63;11.82;;;;;;;;;;5056984;28;20037;-83
2022/08/31 01:43:21;;;;;;;19.30;12.27;;;;;;;;;;5072003;28;20045;-83
2022/08/31 01:46:12;;;;;;;13.73;12.27;;;;;;;;;;5065550;28;20475;-85
2022/08/31 01:48:58;;;;;;;17.23;12.73;;;;;;;;;;5074349;28;20044;-83
2022/08/31 01:51:45;;;;;;;19.25;13.35;;;;;;;;;;5065664;28;20040;-82
2022/08/31 01:54:30;;;;;;;16.65;12.43;;;;;;;;;;5065825;28;20047;-83
2022/08/31 01:57:16;;;;;;;17.80;12.10;;;;;;;;;;5064824;28;20040;-83
2022/08/31 02:00:33;;;;;;;15.57;12.38;;;;;;;;;;5065726;28;20382;-84
2022/08/31 02:03:18;;;;;;;17.35;12.48;;;;;;;;;;5093931;28;20032;-82
2022/08/31 02:06:12;;;;;;;14.80;12.82;;;;;;;;;;5079396;28;20044;-83
2022/08/31 02:08:58;;;;;;;16.17;12.50;;;;;;;;;;5065377;28;20040;-84
2022/08/31 02:11:44;;;;;;;18.48;12.88;;;;;;;;;;5065557;28;20040;-83
2022/08/31 02:14:30;;;;;;;16.50;12.68;;;;;;;;;;5065510;28;20040;-85
2022/08/31 02:17:15;;;;;;;17.30;11.73;;;;;;;;;;5073827;28;20456;-82
2022/08/31 02:20:02;;;;;;;17.55;12.88;;;;;;;;;;5064782;28;20037;-83
2022/08/31 02:22:47;;;;;;;16.02;12.68;;;;;;;;;;5073525;28;20033;-83
2022/08/31 02:25:33;;;;;;;15.40;13.38;;;;;;;;;;5065281;28;20048;-83
2022/08/31 02:28:24;;;;;;;19.67;12.68;;;;;;;;;;5065298;28;20041;-80
2022/08/31 02:31:14;;;;;;;18.83;12.50;;;;;;;;;;5065496;28;20463;-82
2022/08/31 02:34:09;;;;;;;18.90;13.27;;;;;;;;;;5065066;28;20044;-83
2022/08/31 02:36:55;;;;;;;17.92;13.25;;;;;;;;;;5093268;28;20036;-83
2022/08/31 02:39:41;;;;;;;17.35;13.35;;;;;;;;;;5094028;28;20475;-82
2022/08/31 02:42:26;;;;;;;19.27;13.40;;;;;;;;;;5065241;28;20032;-82
2022/08/31 02:45:12;;;;;;;17.52;12.60;;;;;;;;;;5073376;28;20049;-83
2022/08/31 02:48:00;;;;;;;18.15;13.00;;;;;;;;;;5058658;28;20053;-83
2022/08/31 02:50:56;;;;;;;14.23;12.27;;;;;;;;;;5065296;28;20048;-84
2022/08/31 02:53:44;;;;;;;16.10;13.30;;;;;;;;;;5065088;28;20044;-84
2022/08/31 02:56:29;;;;;;;20.98;13.50;;;;;;;;;;5073455;28;20040;-81
2022/08/31 02:59:15;;;;;;;17.45;13.15;;;;;;;;;;5065171;28;20044;-81
2022/08/31 03:02:00;;;;;;;19.70;13.85;;;;;;;;;;5064953;28;20036;-83
2022/08/31 03:04:45;;;;;;;17.35;13.23;;;;;;;;;;5064828;28;20041;-84
2022/08/31 03:07:37;;;;;;;16.65;13.10;;;;;;;;;;5094433;28;20040;-81
2022/08/31 03:10:34;;;;;;;16.35;12.95;;;;;;;;;;5068584;28;20036;-83
2022/08/31 03:13:19;;;;;;;17.88;12.63;;;;;;;;;;5071805;28;20036;-83
2022/08/31 03:16:08;;;;;;;19.55;12.07;;;;;;;;;;5085810;28;20057;-83
2022/08/31 03:18:53;;;;;;;14.32;12.25;;;;;;;;;;5075785;28;20051;-81
2022/08/31 03:21:38;;;;;;;14.60;12.07;;;;;;;;;;5087064;28;20402;-83
2022/08/31 03:24:24;;;;;;;18.83;12.43;;;;;;;;;;5080613;28;20415;-84
2022/08/31 03:27:10;;;;;;;17.25;13.10;;;;;;;;;;5089168;28;20048;-82
2022/08/31 03:29:55;;;;;;;16.85;12.88;;;;;;;;;;5078380;28;20036;-81
2022/08/31 03:32:44;;;;;;;16.60;12.90;;;;;;;;;;5101447;28;20060;-79
2022/08/31 03:35:30;;;;;;;14.65;12.13;;;;;;;;;;5090956;28;20048;-81
2022/08/31 03:38:15;;;;;;;13.68;12.07;;;;;;;;;;5098090;28;20036;-83
2022/08/31 03:41:03;;;;;;;18.70;12.65;;;;;;;;;;5086926;28;20378;-82
2022/08/31 03:43:52;;;;;;;16.17;13.05;;;;;;;;;;5087632;28;20039;-84
2022/08/31 03:46:40;;;;;;;17.55;13.18;;;;;;;;;;5087988;28;20048;-82
2022/08/31 03:49:26;;;;;;;17.13;12.57;;;;;;;;;;5096060;28;20044;-82
2022/08/31 03:52:40;;;;;;;21.70;13.02;;;;;;;;;;5095316;28;20044;-83
2022/08/31 03:55:38;;;;;;;19.73;13.43;;;;;;;;;;5087966;28;20044;-83
2022/08/31 03:58:25;;;;;;;18.15;13.15;;;;;;;;;;5073999;28;20040;-82
2022/08/31 04:01:12;;;;;;;16.05;12.57;;;;;;;;;;5088323;28;20036;-84
2022/08/31 04:04:18;;;;;;;17.45;13.30;;;;;;;;;;5073132;28;20044;-84
2022/08/31 04:07:22;;;;;;;15.82;13.05;;;;;;;;;;5096463;28;20040;-84
2022/08/31 04:10:28;;;;;;;17.80;13.60;;;;;;;;;;5096214;28;20044;-83
2022/08/31 04:13:35;;;;;;;19.60;12.60;;;;;;;;;;5096660;28;20047;-83
2022/08/31 04:16:48;;;;;;;18.50;13.45;;;;;;;;;;5075967;28;20044;-82
2022/08/31 04:19:40;;;;;;;20.83;12.30;;;;;;;;;;5097962;28;20048;-82
2022/08/31 04:22:36;;;;;;;18.42;11.32;;;;;;;;;;5078709;28;20044;-82
2022/08/31 04:25:48;;;;;;;16.23;11.32;;;;;;;;;;5106332;28;20044;-83
2022/08/31 04:28:33;;;;;;;17.17;12.25;;;;;;;;;;5076596;28;20052;-83
2022/08/31 04:31:22;;;;;;;15.25;10.68;;;;;;;;;;5077322;28;20390;-81
2022/08/31 04:34:08;;;;;;;17.35;11.02;;;;;;;;;;5090864;28;20036;-82
2022/08/31 04:36:53;;;;;;;16.35;11.10;;;;;;;;;;5099076;28;20048;-82
2022/08/31 04:39:41;;;;;;;20.92;11.18;;;;;;;;;;5096689;28;20044;-82
2022/08/31 04:42:29;;;;;;;16.40;11.98;;;;;;;;;;5102335;28;20462;-82
2022/08/31 04:45:16;;;;;;;16.60;10.77;;;;;;;;;;5095420;28;20040;-81
2022/08/31 04:48:02;;;;;;;13.30;11.75;;;;;;;;;;5086797;28;20482;-83
2022/08/31 04:50:49;;;;;;;26.42;11.95;;;;;;;;;;5087228;28;20040;-83
2022/08/31 04:53:35;;;;;;;13.38;11.05;;;;;;;;;;5086862;28;20044;-82
2022/08/31 04:56:24;;;;;;;17.45;11.32;;;;;;;;;;5087308;28;20043;-82
2022/08/31 04:59:14;;;;;;;15.35;10.63;;;;;;;;;;5073307;28;20043;-82
2022/08/31 05:02:16;;;;;;;12.27;10.80;;;;;;;;;;5086825;28;20040;-84
2022/08/31 05:05:23;;;;;;;16.58;11.25;;;;;;;;;;5086784;28;20040;-82
2022/08/31 05:08:09;;;;;;;13.15;10.93;;;;;;;;;;5100584;28;20043;-84
2022/08/31 05:10:54;;;;;;;19.52;10.20;;;;;;;;;;5085928;28;20048;-83
2022/08/31 05:13:40;;;;;;;14.85;10.27;;;;;;;;;;5067414;28;20383;-81
2022/08/31 05:16:29;;;;;;;15.68;11.10;;;;;;;;;;5052362;28;20048;-82
2022/08/31 05:19:36;;;;;;;17.40;13.57;;;;;;;;;;5077587;28;20028;-82
2022/08/31 05:22:43;;;;;;;12.60;10.50;;;;;;;;;;5079883;28;20193;-83
2022/08/31 05:25:39;;;;;;;16.52;10.27;;;;;;;;;;5073090;28;20036;-82
2022/08/31 05:28:33;;;;;;;13.77;10.10;;;;;;;;;;5065838;28;20379;-84
2022/08/31 05:35:35;;;;;;;16.02;9.68;;;;;;;;;;5051686;28;20036;-84
2022/08/31 05:38:29;;;;;;;14.73;10.00;;;;;;;;;;5066063;28;20032;-84
2022/08/31 05:41:17;;;;;;;11.73;9.68;;;;;;;;;;5066254;28;20056;-83
2022/08/31 05:44:04;;;;;;;12.27;9.88;;;;;;;;;;5065815;28;20037;-83
2022/08/31 05:46:49;;;;;;;14.90;9.93;;;;;;;;;;5064218;28;20379;-85
2022/08/31 05:49:34;;;;;;;13.50;10.15;;;;;;;;;;5065391;28;20040;-82
2022/08/31 05:52:20;;;;;;;18.77;11.13;;;;;;;;;;5065751;28;20459;-83
2022/08/31 05:55:05;;;;;;;17.70;11.68;;;;;;;;;;5066174;28;20052;-83
2022/08/31 05:57:51;;;;;;;13.77;11.27;;;;;;;;;;5061553;28;20044;-82
2022/08/31 06:00:38;;;;;;;14.82;10.32;;;;;;;;;;5047585;28;20116;-83
2022/08/31 06:03:44;;;;;;;15.00;10.82;;;;;;;;;;5056412;28;20041;-83
2022/08/31 06:06:30;;;;;;;16.25;11.38;;;;;;;;;;5057186;28;20487;-82
2022/08/31 06:09:15;;;;;;;16.23;11.50;;;;;;;;;;5060365;28;20045;-80
2022/08/31 06:12:05;;;;;;;14.63;10.68;;;;;;;;;;5069870;28;20041;-81
2022/08/31 06:14:55;;;;;;;20.85;12.13;;;;;;;;;;5067341;28;20044;-83
2022/08/31 06:17:50;;;;;;;16.60;10.70;;;;;;;;;;5054060;28;20475;-81
2022/08/31 06:20:49;;;;;;;13.30;9.68;;;;;;;;;;5065372;28;20475;-83
2022/08/31 06:23:48;;;;;;;15.27;10.43;;;;;;;;;;5061058;28;20049;-84
2022/08/31 06:26:48;;;;;;;;;;;;;;;;;;;;;
2022/08/31 06:38:54;;;;;;;11.82;9.02;;;;;;;;;;5058530;28;20049;-82
2022/08/31 06:42:02;;;;;;;14.85;9.95;;;;;;;;;;5060374;28;20037;-81
2022/08/31 06:44:48;;;;;;;15.38;9.32;;;;;;;;;;5061358;28;20045;-82
2022/08/31 06:47:37;;;;;;;16.70;10.00;;;;;;;;;;5060909;28;20040;-84
2022/08/31 06:50:23;;;;;;;13.25;8.55;;;;;;;;;;5048771;28;20476;-83
2022/08/31 06:53:09;;;;;;;12.77;8.63;;;;;;;;;;5061173;28;20041;-82
2022/08/31 06:56:20;;;;;;;16.95;9.82;;;;;;;;;;5027254;28;20411;-83
2022/08/31 06:59:25;;;;;;;17.30;9.65;;;;;;;;;;5055402;28;20045;-83
2022/08/31 07:02:28;;;;;;;13.90;9.65;;;;;;;;;;5057079;28;20045;-85
2022/08/31 07:05:14;;;;;;;15.73;10.88;;;;;;;;;;5049018;28;20045;-84
2022/08/31 07:07:59;;;;;;;13.07;10.60;;;;;;;;;;5048654;28;20040;-83
2022/08/31 07:10:46;;;;;;;13.88;10.40;;;;;;;;;;5048969;28;20045;-83
2022/08/31 07:13:30;;;;;;;17.38;10.82;;;;;;;;;;5048605;28;20041;-83
2022/08/31 07:16:19;;;;;;;14.57;10.80;;;;;;;;;;5057168;28;20049;-84
2022/08/31 07:19:05;;;;;;;15.52;10.35;;;;;;;;;;5049023;28;20049;-81
2022/08/31 07:21:56;;;;;;;13.35;10.63;;;;;;;;;;5062336;28;20480;-82
2022/08/31 07:24:41;;;;;;;14.90;10.68;;;;;;;;;;5053930;28;20052;-82
2022/08/31 07:27:26;;;;;;;13.43;9.23;;;;;;;;;;5068224;28;20040;-80
2022/08/31 07:30:15;;;;;;;12.32;8.52;;;;;;;;;;5068573;28;20387;-81
2022/08/31 07:33:05;;;;;;;16.30;9.10;;;;;;;;;;5068660;28;20049;-80
2022/08/31 07:35:53;;;;;;;12.50;8.70;;;;;;;;;;5068126;28;20048;-81
2022/08/31 07:42:10;;;;;;;11.02;7.88;;;;;;;;;;5068069;28;20483;-81
2022/08/31 07:44:58;;;;;;;10.20;7.75;;;;;;;;;;5068512;28;20044;-84
2022/08/31 07:47:45;;;;;;;9.38;8.10;;;;;;;;;;5076419;28;20479;-81
2022/08/31 07:50:32;;;;;;;10.15;7.53;;;;;;;;;;5067961;28;20048;-81
2022/08/31 07:53:41;;;;;;;9.63;7.07;;;;;;;;;;5076329;28;20040;-82
2022/08/31 07:56:42;;;;;;;11.57;7.80;;;;;;;;;;5067602;28;20037;-84
2022/08/31 07:59:33;;;;;;;10.45;7.55;;;;;;;;;;5054839;28;20491;-83
2022/08/31 08:02:20;;;;;;;10.35;7.68;;;;;;;;;;5067754;28;20048;-84
2022/08/31 08:05:11;;;;;;;9.05;7.10;;;;;;;;;;5068113;28;20040;-83
2022/08/31 08:08:25;;;;;;;11.93;7.75;;;;;;;;;;5047289;28;20040;-84
2022/08/31 08:11:31;;;;;;;11.38;6.97;;;;;;;;;;5075894;28;20111;-83
2022/08/31 08:14:41;;;;;;;11.07;7.95;;;;;;;;;;5050950;28;20443;-83
2022/08/31 08:17:44;;;;;;;8.52;7.35;;;;;;;;;;5055457;28;20044;-84
2022/08/31 08:20:33;;;;;;;9.57;7.55;;;;;;;;;;5067493;28;20041;-82
2022/08/31 08:23:18;;;;;;;9.75;6.88;;;;;;;;;;5067278;28;20382;-83
2022/08/31 08:26:25;;;;;;;12.32;7.32;;;;;;;;;;5075664;28;20032;-84
2022/08/31 08:29:32;;;;;;;8.27;5.90;;;;;;;;;;5067712;28;20049;-81
2022/08/31 08:32:19;;;;;;;9.40;7.28;;;;;;;;;;5067124;28;20471;-81
2022/08/31 08:35:05;;;;;;;8.35;7.18;;;;;;;;;;5067541;28;20048;-80
2022/08/31 08:37:51;;;;;;;9.13;6.88;;;;;;;;;;5066910;28;20045;-81
2022/08/31 08:40:42;;;;;;;8.75;7.05;;;;;;;;;;5067052;28;20477;-81
2022/08/31 08:43:31;;;;;;;10.13;7.18;;;;;;;;;;5067984;28;20037;-81
2022/08/31 08:46:25;;;;;;;9.02;6.68;;;;;;;;;;5071155;28;20041;-81
2022/08/31 08:49:16;;;;;;;9.02;6.40;;;;;;;;;;5077786;28;20036;-78
2022/08/31 08:52:45;;;;;;;9.18;7.03;;;;;;;;;;5080140;28;20044;-81
2022/08/31 08:55:39;;;;;;;11.88;6.47;;;;;;;;;;5070504;28;20044;-80
2022/08/31 08:58:24;;;;;;;9.25;7.00;;;;;;;;;;5081385;28;20045;-80
2022/08/31 09:01:20;;;;;;;7.93;6.57;;;;;;;;;;5067080;28;20464;-80
2022/08/31 09:04:16;;;;;;;11.73;7.20;;;;;;;;;;5066562;28;20044;-82
2022/08/31 09:07:41;;;;;;;6.72;5.20;;;;;;;;;;5074517;28;20093;-83
2022/08/31 09:10:33;;;;;;;8.80;6.60;;;;;;;;;;5074979;28;20041;-82
2022/08/31 09:13:35;;;;;;;7.55;6.72;;;;;;;;;;5081411;28;20052;-82
2022/08/31 09:16:41;;;;;;;8.00;6.15;;;;;;;;;;5066318;28;20395;-81
2022/08/31 09:19:27;;;;;;;11.93;5.75;;;;;;;;;;5065948;28;20040;-81
2022/08/31 09:22:13;;;;;;;6.95;6.20;;;;;;;;;;5066944;28;20044;-82
2022/08/31 09:25:01;;;;;;;7.45;6.28;;;;;;;;;;5062341;28;20049;-81
2022/08/31 09:28:07;;;;;;;8.48;5.78;;;;;;;;;;5074136;28;20045;-80
2022/08/31 09:30:52;;;;;;;8.52;5.95;;;;;;;;;;5074954;28;20032;-81
2022/08/31 09:33:49;;;;;;;6.35;5.22;;;;;;;;;;5074236;28;20040;-81
2022/08/31 09:36:39;;;;;;;7.78;5.47;;;;;;;;;;5081257;28;20052;-80
2022/08/31 09:39:30;;;;;;;6.28;5.30;;;;;;;;;;5074543;28;20052;-82
2022/08/31 09:42:31;;;;;;;9.52;6.05;;;;;;;;;;5080913;28;20052;-81
2022/08/31 09:45:28;;;;;;;6.38;5.50;;;;;;;;;;5081553;28;20048;-78
2022/08/31 09:48:33;;;;;;;9.60;5.63;;;;;;;;;;5073784;28;20040;-77
2022/08/31 09:51:24;;;;;;;8.05;5.47;;;;;;;;;;5081242;28;20372;-80
2022/08/31 09:57:52;;;;;;;7.40;6.38;;;;;;;;;;5081033;28;20052;-81
2022/08/31 10:00:41;;;;;;;7.70;6.30;;;;;;;;;;5080591;28;20044;-80
2022/08/31 10:03:29;;;;;;;7.25;5.72;;;;;;;;;;5080526;28;20391;-82
2022/08/31 10:06:45;;;;;;;8.77;5.95;;;;;;;;;;5080854;28;20467;-80
2022/08/31 10:09:46;;;;;;;7.25;6.10;;;;;;;;;;5073576;28;20048;-80
2022/08/31 10:12:42;;;;;;;8.15;5.78;;;;;;;;;;5080757;28;20456;-81
2022/08/31 10:15:47;;;;;;;10.07;5.50;;;;;;;;;;5065060;28;20040;-79
2022/08/31 10:18:42;;;;;;;8.10;5.53;;;;;;;;;;5080079;28;20463;-79
2022/08/31 10:21:53;;;;;;;7.05;6.05;;;;;;;;;;5080368;28;20415;-77
2022/08/31 10:24:53;;;;;;;8.57;5.93;;;;;;;;;;5073520;28;20040;-79
2022/08/31 10:27:46;;;;;;;7.15;5.88;;;;;;;;;;5080502;28;20041;-79
2022/08/31 10:30:41;;;;;;;9.25;5.75;;;;;;;;;;5080437;28;20040;-80
2022/08/31 10:36:50;;;;;;;7.13;5.93;;;;;;;;;;5080391;28;20460;-81
2022/08/31 10:39:43;;;;;;;7.70;5.93;;;;;;;;;;5073281;28;20391;-79
2022/08/31 10:42:36;;;;;;;7.22;5.80;;;;;;;;;;5073765;28;20037;-80
2022/08/31 10:45:24;;;;;;;7.22;6.43;;;;;;;;;;5079905;28;20044;-79
2022/08/31 10:48:11;;;;;;;6.68;5.65;;;;;;;;;;5079938;28;20041;-80
2022/08/31 10:51:21;;;;;;;9.70;6.45;;;;;;;;;;5073392;28;20041;-81
2022/08/31 10:54:20;;;;;;;8.40;6.50;;;;;;;;;;5073736;28;20040;-80
2022/08/31 10:57:30;;;;;;;9.57;6.60;;;;;;;;;;5080224;28;20459;-79
2022/08/31 11:00:41;;;;;;;6.82;5.93;;;;;;;;;;5080360;28;20048;-77
2022/08/31 11:03:51;;;;;;;10.77;6.15;;;;;;;;;;5073299;28;20044;-81
2022/08/31 11:06:46;;;;;;;8.02;6.53;;;;;;;;;;5079802;28;20048;-79
2022/08/31 11:10:14;;;;;;;8.00;6.30;;;;;;;;;;5079997;28;20070;-81
2022/08/31 11:13:05;;;;;;;7.03;6.15;;;;;;;;;;5060471;28;20375;-81
2022/08/31 11:16:21;;;;;;;6.07;5.47;;;;;;;;;;5073498;28;20048;-81
2022/08/31 11:19:16;;;;;;;8.23;5.85;;;;;;;;;;5079611;28;20044;-80
2022/08/31 11:22:39;;;;;;;6.60;5.80;;;;;;;;;;5073278;28;20033;-83
2022/08/31 11:25:57;;;;;;;8.57;5.90;;;;;;;;;;5076843;28;20044;-81
2022/08/31 11:28:47;;;;;;;6.72;5.72;;;;;;;;;;5085387;28;20379;-78
2022/08/31 11:31:33;;;;;;;6.90;5.78;;;;;;;;;;5096674;28;20044;-79
2022/08/31 11:34:26;;;;;;;8.82;6.32;;;;;;;;;;5089533;28;20045;-81
2022/08/31 11:37:12;;;;;;;9.13;5.43;;;;;;;;;;5086124;28;20384;-80
2022/08/31 11:39:58;;;;;;;9.10;5.70;;;;;;;;;;5083238;28;20048;-80
2022/08/31 11:43:04;;;;;;;6.47;5.82;;;;;;;;;;5083651;28;20448;-80
2022/08/31 11:45:49;;;;;;;6.40;5.32;;;;;;;;;;5083343;28;20044;-82
2022/08/31 11:48:50;;;;;;;7.63;5.55;;;;;;;;;;5076124;28;20033;-81
2022/08/31 11:51:41;;;;;;;6.07;5.47;;;;;;;;;;5076474;28;20406;-80
2022/08/31 11:54:26;;;;;;;9.18;5.82;;;;;;;;;;5076270;28;20037;-79
2022/08/31 11:57:16;;;;;;;10.77;5.82;;;;;;;;;;5083702;28;20048;-80
2022/08/31 12:00:02;;;;;;;6.38;5.78;;;;;;;;;;5082626;28;20044;-81
2022/08/31 12:03:08;;;;;;;7.97;6.38;;;;;;;;;;5076431;28;20044;-83
2022/08/31 12:05:56;;;;;;;7.85;5.90;;;;;;;;;;5076502;28;20367;-80
2022/08/31 12:08:51;;;;;;;8.07;6.03;;;;;;;;;;5082399;28;20040;-82
2022/08/31 12:11:48;;;;;;;6.72;6.03;;;;;;;;;;5078358;28;20040;-80
2022/08/31 12:14:48;;;;;;;7.57;5.88;;;;;;;;;;5067429;28;20479;-80
2022/08/31 12:17:54;;;;;;;8.07;6.05;;;;;;;;;;5062888;28;20379;-80
2022/08/31 12:23:57;;;;;;;12.55;6.45;;;;;;;;;;5067186;28;20386;-82
2022/08/31 12:27:17;;;;;;;7.13;6.13;;;;;;;;;;5065433;28;20037;-79
2022/08/31 12:30:17;;;;;;;5.78;5.07;;;;;;;;;;5062308;28;20045;-80
2022/08/31 12:33:10;;;;;;;5.10;3.47;;;;;;;;;;5055558;28;20040;-80
2022/08/31 12:36:11;;;;;;;4.68;3.97;;;;;;;;;;5070891;28;20483;-82
2022/08/31 12:39:12;;;;;;;8.73;5.05;;;;;;;;;;5069997;28;20040;-82
2022/08/31 12:42:02;;;;;;;6.65;4.63;;;;;;;;;;5069621;28;20049;-79
2022/08/31 12:44:50;;;;;;;5.72;5.13;;;;;;;;;;5070912;28;20379;-82
2022/08/31 12:47:38;;;;;;;9.80;5.32;;;;;;;;;;5081743;28;20044;-82
2022/08/31 12:50:56;;;;;;;7.38;5.22;;;;;;;;;;5074148;28;20048;-80
2022/08/31 12:53:44;;;;;;;8.43;4.47;;;;;;;;;;5036320;28;20045;-81
2022/08/31 12:56:56;;;;;;;6.32;4.93;;;;;;;;;;5076646;28;20044;-81
2022/08/31 13:00:19;;;;;;;7.32;5.05;;;;;;;;;;5078683;28;20044;-81
2022/08/31 13:03:20;;;;;;;9.13;5.47;;;;;;;;;;5079932;28;20048;-82
2022/08/31 13:06:14;;;;;;;7.85;5.78;;;;;;;;;;5072713;28;20036;-81
2022/08/31 13:09:00;;;;;;;7.20;5.50;;;;;;;;;;5072935;28;20464;-83
2022/08/31 13:11:50;;;;;;;7.22;5.30;;;;;;;;;;5054607;28;20045;-78
2022/08/31 13:14:42;;;;;;;6.28;5.28;;;;;;;;;;5068750;28;20066;-81
2022/08/31 13:17:34;;;;;;;10.68;5.43;;;;;;;;;;5077158;28;20040;-81
2022/08/31 13:20:24;;;;;;;16.70;7.07;;;;;;;;;;5073124;28;20049;-80
2022/08/31 13:23:25;;;;;;;10.40;6.28;;;;;;;;;;5061601;28;20028;-81
2022/08/31 13:26:18;;;;;;;7.07;5.35;;;;;;;;;;5076582;28;20045;-83
2022/08/31 13:29:06;;;;;;;6.72;5.47;;;;;;;;;;5068995;28;20045;-79
2022/08/31 13:31:52;;;;;;;5.55;4.70;;;;;;;;;;5061407;28;20036;-80
2022/08/31 13:34:41;;;;;;;7.95;5.22;;;;;;;;;;5068912;28;20379;-79
2022/08/31 13:37:30;;;;;;;5.00;3.85;;;;;;;;;;5081938;28;20052;-81
2022/08/31 13:40:19;;;;;;;6.72;4.28;;;;;;;;;;5068719;28;20490;-78
2022/08/31 13:43:08;;;;;;;6.22;4.35;;;;;;;;;;5078376;28;20041;-81
2022/08/31 13:45:59;;;;;;;4.68;3.97;;;;;;;;;;5073931;28;20382;-79
2022/08/31 13:48:55;;;;;;;5.20;4.40;;;;;;;;;;5075682;28;20036;-80
2022/08/31 13:51:45;;;;;;;8.52;4.60;;;;;;;;;;5081083;28;20036;-80
2022/08/31 13:54:34;;;;;;;4.70;4.20;;;;;;;;;;5061435;28;20037;-80
2022/08/31 13:57:27;;;;;;;7.97;4.00;;;;;;;;;;5081369;28;20048;-78
2022/08/31 14:00:36;;;;;;;5.88;4.25;;;;;;;;;;5080867;28;20424;-81
2022/08/31 14:03:50;;;;;;;7.03;4.30;;;;;;;;;;5071714;28;20487;-82
2022/08/31 14:06:38;;;;;;;4.80;4.20;;;;;;;;;;5066401;28;20045;-81
2022/08/31 14:09:23;;;;;;;4.75;4.30;;;;;;;;;;5066852;28;20040;-78
2022/08/31 14:12:20;;;;;;;8.20;5.30;;;;;;;;;;5090868;28;20040;-78
2022/08/31 14:15:16;;;;;;;7.80;6.40;;;;;;;;;;5076635;28;20036;-80
2022/08/31 14:18:23;;;;;;;8.02;6.53;;;;;;;;;;5074240;28;20387;-82
2022/08/31 14:21:08;;;;;;;8.88;6.00;;;;;;;;;;5076448;28;20036;-82
2022/08/31 14:24:00;;;;;;;7.47;5.30;;;;;;;;;;5053944;28;20041;-80
2022/08/31 14:26:46;;;;;;;7.45;5.57;;;;;;;;;;5058892;28;20049;-80
2022/08/31 14:29:32;;;;;;;7.28;6.00;;;;;;;;;;5059290;28;20045;-81
2022/08/31 14:32:21;;;;;;;10.57;7.50;;;;;;;;;;5051920;28;20476;-81
2022/08/31 14:35:09;;;;;;;9.13;6.57;;;;;;;;;;5043395;28;20049;-81
2022/08/31 14:37:54;;;;;;;7.20;5.50;;;;;;;;;;5053318;28;20052;-81
2022/08/31 14:40:43;;;;;;;7.03;5.38;;;;;;;;;;5073214;28;20049;-83
2022/08/31 14:43:28;;;;;;;7.32;5.78;;;;;;;;;;5053592;28;20049;-82
2022/08/31 14:46:26;;;;;;;9.38;6.00;;;;;;;;;;5060139;28;20052;-82
2022/08/31 14:49:11;;;;;;;8.15;5.88;;;;;;;;;;5053022;28;20037;-80
2022/08/31 14:52:01;;;;;;;8.57;5.55;;;;;;;;;;5059801;28;20467;-81
2022/08/31 14:54:46;;;;;;;8.48;5.60;;;;;;;;;;5053694;28;20053;-79
2022/08/31 14:57:32;;;;;;;6.90;5.70;;;;;;;;;;5059851;28;20049;-80
2022/08/31 15:00:22;;;;;;;6.93;5.43;;;;;;;;;;5060344;28;20045;-82
2022/08/31 15:03:08;;;;;;;7.82;5.40;;;;;;;;;;5053503;28;20372;-81
2022/08/31 15:05:53;;;;;;;8.77;5.90;;;;;;;;;;5057361;28;20037;-80
2022/08/31 15:08:40;;;;;;;6.97;5.57;;;;;;;;;;5064252;28;20376;-80
2022/08/31 15:11:26;;;;;;;9.10;6.32;;;;;;;;;;5064132;28;20049;-82
2022/08/31 15:14:12;;;;;;;7.15;5.03;;;;;;;;;;5057130;28;20045;-81
2022/08/31 15:16:59;;;;;;;7.40;5.03;;;;;;;;;;5063510;28;20048;-80
2022/08/31 15:19:45;;;;;;;6.28;4.80;;;;;;;;;;5063673;28;20045;-83
2022/08/31 15:22:32;;;;;;;5.40;4.72;;;;;;;;;;5063862;28;20037;-81
2022/08/31 15:25:19;;;;;;;5.72;4.72;;;;;;;;;;5056587;28;20045;-83
2022/08/31 15:28:07;;;;;;;7.47;4.82;;;;;;;;;;5063516;28;20041;-83
2022/08/31 15:30:53;;;;;;;6.57;4.75;;;;;;;;;;5056696;28;20036;-81
2022/08/31 15:33:40;;;;;;;7.80;4.68;;;;;;;;;;5063637;28;20049;-80
2022/08/31 15:36:26;;;;;;;6.68;4.40;;;;;;;;;;5056998;28;20033;-82
2022/08/31 15:39:13;;;;;;;6.05;4.60;;;;;;;;;;5063357;28;20045;-82
2022/08/31 15:42:00;;;;;;;4.85;4.15;;;;;;;;;;5056659;28;20037;-82
2022/08/31 15:44:54;;;;;;;5.60;4.32;;;;;;;;;;5047880;28;20041;-82
2022/08/31 15:50:49;;;;;;;6.35;4.72;;;;;;;;;;5056517;28;20045;-80
2022/08/31 15:53:34;;;;;;;5.65;4.53;;;;;;;;;;5062890;28;20037;-81
2022/08/31 15:56:22;;;;;;;4.93;4.35;;;;;;;;;;5063224;28;20048;-80
2022/08/31 15:59:09;;;;;;;5.85;4.65;;;;;;;;;;5062807;28;20041;-81
2022/08/31 16:01:55;;;;;;;5.97;4.88;;;;;;;;;;5056080;28;20037;-83
2022/08/31 16:04:44;;;;;;;6.93;5.28;;;;;;;;;;5055872;28;20049;-80
2022/08/31 16:07:29;;;;;;;7.47;5.88;;;;;;;;;;5055634;28;20041;-80
2022/08/31 16:10:16;;;;;;;4.70;4.18;;;;;;;;;;5062651;28;20041;-81
2022/08/31 16:13:02;;;;;;;6.35;4.72;;;;;;;;;;5062364;28;20045;-80
2022/08/31 16:15:50;;;;;;;11.70;7.63;;;;;;;;;;5054265;28;20041;-80
2022/08/31 16:18:36;;;;;;;9.25;5.72;;;;;;;;;;5056366;28;20368;-82
2022/08/31 16:21:24;;;;;;;9.10;5.60;;;;;;;;;;5062307;28;20037;-81
2022/08/31 16:24:11;;;;;;;7.82;4.88;;;;;;;;;;5055430;28;20040;-83
2022/08/31 16:26:59;;;;;;;11.18;5.03;;;;;;;;;;5055659;28;20464;-81
2022/08/31 16:29:46;;;;;;;7.53;4.80;;;;;;;;;;5062681;28;20041;-81
2022/08/31 16:32:31;;;;;;;8.40;5.28;;;;;;;;;;5055451;28;20033;-80
2022/08/31 16:35:16;;;;;;;8.52;5.20;;;;;;;;;;5055148;28;20041;-80
2022/08/31 16:38:02;;;;;;;9.75;5.72;;;;;;;;;;5062408;28;20056;-81
2022/08/31 16:40:47;;;;;;;9.57;5.57;;;;;;;;;;5055630;28;20052;-80
2022/08/31 16:43:33;;;;;;;7.15;5.50;;;;;;;;;;5062142;28;20045;-81
2022/08/31 16:46:19;;;;;;;14.13;5.70;;;;;;;;;;5064911;28;20045;-81
2022/08/31 16:52:20;;;;;;;8.70;5.80;;;;;;;;;;5078159;28;20048;-80
2022/08/31 16:55:13;;;;;;;9.77;5.82;;;;;;;;;;5078381;28;20052;-80
2022/08/31 16:58:00;;;;;;;9.77;5.78;;;;;;;;;;5047913;28;20048;-82
2022/08/31 17:00:45;;;;;;;8.32;5.25;;;;;;;;;;5061932;28;20032;-81
2022/08/31 17:03:30;;;;;;;7.70;5.10;;;;;;;;;;5061678;28;20049;-81
2022/08/31 17:06:16;;;;;;;7.78;5.57;;;;;;;;;;5062082;28;20376;-81
2022/08/31 17:09:05;;;;;;;10.55;6.35;;;;;;;;;;5066890;28;20028;-80
2022/08/31 17:11:59;;;;;;;10.55;6.57;;;;;;;;;;5081848;28;20467;-79
2022/08/31 17:14:51;;;;;;;12.05;7.57;;;;;;;;;;5081687;28;20040;-80
2022/08/31 17:17:36;;;;;;;12.00;6.90;;;;;;;;;;5071898;28;20049;-80
2022/08/31 17:20:21;;;;;;;10.15;6.53;;;;;;;;;;5080418;28;20052;-82
2022/08/31 17:23:09;;;;;;;9.20;6.28;;;;;;;;;;5074601;28;20041;-79
2022/08/31 17:25:54;;;;;;;10.65;6.25;;;;;;;;;;5071143;28;20472;-81
2022/08/31 17:28:42;;;;;;;10.98;6.50;;;;;;;;;;5072689;28;20048;-80
2022/08/31 17:31:35;;;;;;;10.02;7.13;;;;;;;;;;5074782;28;20049;-81
2022/08/31 17:34:26;;;;;;;15.90;8.38;;;;;;;;;;5053779;28;20040;-81
2022/08/31 17:37:14;;;;;;;12.15;8.40;;;;;;;;;;5067617;28;20052;-81
2022/08/31 17:40:00;;;;;;;13.65;9.93;;;;;;;;;;5054435;28;20037;-81
2022/08/31 17:42:47;;;;;;;12.70;10.05;;;;;;;;;;5069010;28;20032;-80
2022/08/31 17:45:34;;;;;;;15.90;9.07;;;;;;;;;;5064687;28;20040;-78
2022/08/31 17:48:19;;;;;;;14.13;8.48;;;;;;;;;;5073539;28;20040;-81
2022/08/31 17:51:10;;;;;;;11.77;8.32;;;;;;;;;;5070383;28;20052;-81